KLGC/LGC METAR and TAF weather

Enter ICAO airport designator
Station Type Date Time Source
KLGC METAR 2019/10/23 20:55 UTC NOAA

KLGC 232055Z AUTO 36006KT 10SM CLR 21/00 A3014 RMK AO2 T02060002


Station Type Date Time Source
KLGC Decoded METAR 2019/10/23 20:55 UTC NOAA

La Grange, Callaway Airport, GA, United States (KLGC) 33-00-32N 085-04-21W
Oct 23, 2019 - 04:55 PM EDT / 2019.10.23 2055 UTC
Wind: from the N (360 degrees) at 7 MPH (6 KT):0
Visibility: 10 mile(s):0
Sky conditions: clear
Temperature: 69.1 F (20.6 C)
Dew Point: 32.4 F (0.2 C)
Relative Humidity: 25%
Pressure (altimeter): 30.14 in. Hg (1020 hPa)
ob: KLGC 232055Z AUTO 36006KT 10SM CLR 21/00 A3014 RMK AO2 T02060002
cycle: 21

Station Type Date Time Source
KLGC TAF UTC NOAA

Error!

Example: see airport list